Time;durP1;ratioP1;P1;durP2;ratioP2;P2;SDS_P1;SDS_P2;PMS_P1;PMS_P2;Temp;Humidity;BMP_temperature;BMP_pressure;BME280_temperature;BME280_humidity;BME280_pressure;Samples;Min_cycle;Max_cycle;Signal;HPM_P1;HPM_P2
2022/09/20 00:01:21;;;;;;;10.23;1.70;;;10.60;99.90;;;;;;5052508;28;20111;-66
2022/09/20 00:03:52;;;;;;;4.53;1.52;;;10.80;99.90;;;;;;5051419;28;20124;-66
2022/09/20 00:06:21;;;;;;;7.43;1.70;;;10.80;99.90;;;;;;5061432;28;20406;-66
2022/09/20 00:08:47;;;;;;;7.60;1.65;;;;;;;;;;5052050;28;20379;-66
2022/09/20 00:11:24;;;;;;;8.65;1.52;;;10.70;99.90;;;;;;5051227;28;20033;-66
2022/09/20 00:13:53;;;;;;;7.25;1.52;;;10.80;99.90;;;;;;5052441;28;20059;-66
2022/09/20 00:16:30;;;;;;;5.85;1.48;;;10.70;99.90;;;;;;5053597;28;20114;-66
2022/09/20 00:18:57;;;;;;;9.38;1.70;;;10.80;99.90;;;;;;5041936;28;20045;-66
2022/09/20 00:21:26;;;;;;;8.98;1.60;;;10.70;99.90;;;;;;5055185;28;20490;-66
2022/09/20 00:23:52;;;;;;;8.00;1.65;;;10.70;99.90;;;;;;5056142;28;20033;-66
2022/09/20 00:26:17;;;;;;;7.00;1.67;;;10.60;99.90;;;;;;5055215;28;20368;-66
2022/09/20 00:28:45;;;;;;;6.28;1.52;;;10.60;99.90;;;;;;5054795;28;20052;-66
2022/09/20 00:31:11;;;;;;;5.45;1.60;;;10.60;99.90;;;;;;5055131;28;20108;-66
2022/09/20 00:36:22;;;;;;;9.40;2.23;;;10.50;99.90;;;;;;5054849;28;20036;-66
2022/09/20 00:38:47;;;;;;;5.82;1.45;;;10.50;99.90;;;;;;5054529;28;20622;-66
2022/09/20 00:41:13;;;;;;;11.82;1.60;;;10.60;99.90;;;;;;5055906;28;20039;-66
2022/09/20 00:43:44;;;;;;;5.53;1.65;;;10.60;99.90;;;;;;5057100;28;20037;-66
2022/09/20 00:46:35;;;;;;;6.82;1.30;;;10.50;99.90;;;;;;5040890;28;20148;-66
2022/09/20 00:49:14;;;;;;;9.27;1.52;;;10.40;99.90;;;;;;5051893;28;20060;-66
2022/09/20 00:51:44;;;;;;;5.80;1.30;;;10.50;99.90;;;;;;5054782;28;20068;-66
2022/09/20 00:54:13;;;;;;;8.75;1.80;;;10.40;99.90;;;;;;5055776;28;20041;-66
2022/09/20 00:56:42;;;;;;;4.90;1.30;;;10.30;99.90;;;;;;5055473;28;20503;-66
2022/09/20 00:59:26;;;;;;;9.45;2.50;;;10.20;99.90;;;;;;5055538;28;20574;-66
2022/09/20 01:01:56;;;;;;;7.93;1.42;;;10.10;99.90;;;;;;5044994;28;20103;-66
2022/09/20 01:04:24;;;;;;;5.88;1.40;;;10.20;99.90;;;;;;5050069;28;20053;-66
2022/09/20 01:06:52;;;;;;;5.65;1.33;;;10.10;99.90;;;;;;5055451;28;20410;-66
2022/09/20 01:09:18;;;;;;;5.50;1.42;;;10.20;99.90;;;;;;5041289;28;20127;-66
2022/09/20 01:11:45;;;;;;;6.93;1.30;;;10.00;99.90;;;;;;5055541;28;20065;-66
2022/09/20 01:14:14;;;;;;;6.25;0.95;;;10.20;99.90;;;;;;5053956;28;20453;-66
2022/09/20 01:16:39;;;;;;;4.68;1.45;;;10.10;99.90;;;;;;5055115;28;20040;-66
2022/09/20 01:19:19;;;;;;;8.07;2.03;;;10.30;99.90;;;;;;5055435;28;20040;-66
2022/09/20 01:21:47;;;;;;;5.18;1.13;;;10.10;99.90;;;;;;5055333;28;20064;-66
2022/09/20 01:24:58;;;;;;;7.38;1.50;;;10.10;99.90;;;;;;5055250;28;20045;-66
2022/09/20 01:27:40;;;;;;;7.72;1.52;;;10.10;99.90;;;;;;5031969;28;20044;-66
2022/09/20 01:30:13;;;;;;;6.10;1.45;;;10.00;99.90;;;;;;5041001;28;20064;-66
2022/09/20 01:33:08;;;;;;;6.15;1.58;;;9.90;99.90;;;;;;5055036;28;20044;-66
2022/09/20 01:35:34;;;;;;;6.40;1.53;;;9.90;99.90;;;;;;5055174;28;20045;-66
2022/09/20 01:38:09;;;;;;;13.25;1.95;;;10.10;99.90;;;;;;5055233;28;20033;-66
2022/09/20 01:40:47;;;;;;;7.38;1.95;;;11.20;99.90;;;;;;5053547;28;20059;-66
2022/09/20 01:43:28;;;;;;;5.03;1.35;;;10.10;99.90;;;;;;5053541;28;20510;-66
2022/09/20 01:45:54;;;;;;;5.82;1.63;;;10.10;99.90;;;;;;5040373;28;20044;-66
2022/09/20 01:48:36;;;;;;;4.50;1.23;;;10.30;99.90;;;;;;5053666;28;20037;-66
2022/09/20 01:51:23;;;;;;;10.13;1.52;;;10.20;99.90;;;;;;5040668;28;20041;-66
2022/09/20 01:54:19;;;;;;;11.13;1.60;;;10.30;99.90;;;;;;5053348;28;20087;-66
2022/09/20 01:57:14;;;;;;;3.30;1.40;;;10.30;99.90;;;;;;5053606;28;20052;-66
2022/09/20 02:00:10;;;;;;;4.28;1.60;;;10.20;99.90;;;;;;5041451;28;20048;-66
2022/09/20 02:03:02;;;;;;;7.38;1.52;;;10.30;99.90;;;;;;5052794;28;20128;-66
2022/09/20 02:06:06;;;;;;;7.05;1.52;;;10.40;99.90;;;;;;5047386;28;20123;-66
2022/09/20 02:08:53;;;;;;;7.32;1.65;;;10.50;99.90;;;;;;5045377;28;20040;-66
2022/09/20 02:11:41;;;;;;;4.55;1.33;;;10.30;99.90;;;;;;5039241;28;20044;-66
2022/09/20 02:14:33;;;;;;;2.13;1.17;;;10.40;99.90;;;;;;5052960;28;20037;-66
2022/09/20 02:17:16;;;;;;;8.40;1.45;;;10.40;99.90;;;;;;5039827;28;20044;-66
2022/09/20 02:20:04;;;;;;;5.30;1.38;;;10.40;99.90;;;;;;5054234;28;20066;-66
2022/09/20 02:22:42;;;;;;;5.78;1.50;;;10.40;99.90;;;;;;5052837;28;20060;-66
2022/09/20 02:25:35;;;;;;;6.38;1.45;;;10.30;99.90;;;;;;5036253;28;20479;-66
2022/09/20 02:28:20;;;;;;;7.32;2.13;;;10.40;99.90;;;;;;5054035;28;20372;-66
2022/09/20 02:31:01;;;;;;;;;;;10.50;99.90;;;;;;5042557;28;20059;-66
2022/09/20 02:33:38;;;;;;;5.18;1.48;;;10.50;99.90;;;;;;5054016;28;19917;-66
2022/09/20 02:36:10;;;;;;;4.60;1.85;;;10.60;99.90;;;;;;5052843;28;20094;-66
2022/09/20 02:38:48;;;;;;;4.13;2.25;;;10.60;99.90;;;;;;5053310;28;20513;-66
2022/09/20 02:41:32;;;;;;;4.50;1.30;;;10.70;99.90;;;;;;5052505;28;20052;-66
2022/09/20 02:44:07;;;;;;;5.78;1.30;;;10.80;99.90;;;;;;5057818;28;20040;-66
2022/09/20 02:46:53;;;;;;;2.25;1.10;;;10.80;99.90;;;;;;5061737;28;20041;-66
2022/09/20 02:49:28;;;;;;;5.05;1.27;;;10.80;99.90;;;;;;5039176;28;20056;-66
2022/09/20 02:52:15;;;;;;;8.63;1.58;;;11.00;99.90;;;;;;5053639;28;20043;-66
2022/09/20 02:55:09;;;;;;;5.60;1.27;;;10.90;99.90;;;;;;5053518;28;20418;-66
2022/09/20 02:57:44;;;;;;;9.27;1.88;;;10.80;99.90;;;;;;5052102;28;20051;-66
2022/09/20 03:00:24;;;;;;;4.88;1.33;;;10.80;99.90;;;;;;5053364;28;20052;-67
2022/09/20 03:03:07;;;;;;;9.90;1.98;;;11.00;99.90;;;;;;5034878;28;20046;-66
2022/09/20 03:05:57;;;;;;;8.43;1.10;;;11.00;99.90;;;;;;5047768;28;20041;-66
2022/09/20 03:08:51;;;;;;;5.45;1.00;;;11.00;99.90;;;;;;5052395;28;20445;-66
2022/09/20 03:11:36;;;;;;;8.48;1.85;;;11.10;99.90;;;;;;5051939;28;20497;-66
2022/09/20 03:14:10;;;;;;;18.27;3.67;;;11.00;99.90;;;;;;5053275;28;20056;-66
2022/09/20 03:17:01;;;;;;;2.97;0.90;;;11.10;99.90;;;;;;5052009;28;20391;-66
2022/09/20 03:19:45;;;;;;;7.90;1.35;;;11.10;99.90;;;;;;5053124;28;20053;-66
2022/09/20 03:22:36;;;;;;;5.82;1.10;;;11.20;99.90;;;;;;5040744;28;20044;-66
2022/09/20 03:25:37;;;;;;;8.15;1.40;;;11.20;99.90;;;;;;5051797;28;20053;-66
2022/09/20 03:28:26;;;;;;;5.13;1.40;;;11.20;99.90;;;;;;5053038;28;20139;-66
2022/09/20 03:30:52;;;;;;;6.53;1.08;;;;;;;;;;5041086;28;20517;-66
2022/09/20 03:33:46;;;;;;;4.47;1.17;;;11.20;99.90;;;;;;5051522;28;20044;-66
2022/09/20 03:36:23;;;;;;;3.90;1.15;;;11.30;99.90;;;;;;5052857;28;20037;-66
2022/09/20 03:38:51;;;;;;;1.90;1.13;;;11.40;99.90;;;;;;5047209;28;20051;-66
2022/09/20 03:41:17;;;;;;;5.50;1.15;;;;;;;;;;5042173;28;20047;-66
2022/09/20 03:43:55;;;;;;;7.30;1.30;;;11.30;99.90;;;;;;5054049;28;20049;-66
2022/09/20 03:46:45;;;;;;;9.35;1.10;;;11.40;99.90;;;;;;5044489;28;20036;-66
2022/09/20 03:49:49;;;;;;;5.43;1.38;;;11.50;99.90;;;;;;5043481;28;20060;-66
2022/09/20 03:52:44;;;;;;;7.65;1.98;;;11.30;99.90;;;;;;5053884;28;20044;-66
2022/09/20 03:55:47;;;;;;;5.47;1.00;;;11.20;99.90;;;;;;5055905;28;20049;-66
2022/09/20 03:58:22;;;;;;;3.80;0.90;;;11.50;99.90;;;;;;5046953;28;20044;-66
2022/09/20 04:01:05;;;;;;;4.10;0.85;;;11.40;99.90;;;;;;5055517;28;20425;-66
2022/09/20 04:04:07;;;;;;;2.80;1.02;;;11.40;99.90;;;;;;5055402;28;20060;-66
2022/09/20 04:07:00;;;;;;;2.80;0.90;;;11.40;99.90;;;;;;5044147;28;20049;-66
2022/09/20 04:09:59;;;;;;;6.38;1.17;;;11.40;99.90;;;;;;5056585;28;20037;-66
2022/09/20 04:13:02;;;;;;;5.38;1.00;;;11.40;99.90;;;;;;5038709;28;20045;-66
2022/09/20 04:15:31;;;;;;;2.22;0.77;;;11.40;99.90;;;;;;5044897;28;20033;-66
2022/09/20 04:18:13;;;;;;;6.45;1.20;;;11.40;99.90;;;;;;5054438;28;20043;-66
2022/09/20 04:20:49;;;;;;;3.42;1.05;;;11.40;99.90;;;;;;5044328;28;20044;-66
2022/09/20 04:23:44;;;;;;;9.27;2.15;;;11.40;99.90;;;;;;5052855;28;20509;-66
2022/09/20 04:26:10;;;;;;;4.50;1.20;;;11.50;99.90;;;;;;5048690;28;20122;-66
2022/09/20 04:28:46;;;;;;;4.10;1.70;;;11.30;99.90;;;;;;5056081;28;20061;-66
2022/09/20 04:31:40;;;;;;;3.35;1.00;;;11.30;99.90;;;;;;5055141;28;20060;-66
2022/09/20 04:34:15;;;;;;;4.18;1.38;;;11.40;99.90;;;;;;5042434;28;20043;-66
2022/09/20 04:36:57;;;;;;;3.17;1.00;;;11.40;99.90;;;;;;5055064;28;20041;-66
2022/09/20 04:40:06;;;;;;;3.85;1.13;;;11.20;99.90;;;;;;5054829;28;20041;-66
2022/09/20 04:42:53;;;;;;;6.18;1.10;;;11.40;99.90;;;;;;5004916;28;20099;-66
2022/09/20 04:45:29;;;;;;;7.53;1.67;;;11.20;99.90;;;;;;5050712;28;20057;-66
2022/09/20 04:48:10;;;;;;;3.80;1.00;;;11.30;99.90;;;;;;5055771;28;20028;-66
2022/09/20 04:51:01;;;;;;;5.75;1.15;;;11.20;99.90;;;;;;5054443;28;20045;-66
2022/09/20 04:53:45;;;;;;;5.18;1.10;;;11.20;99.90;;;;;;5056062;28;20037;-66
2022/09/20 04:56:18;;;;;;;5.78;1.13;;;11.20;99.90;;;;;;5041899;28;20535;-66
2022/09/20 04:58:48;;;;;;;5.75;1.13;;;11.30;99.90;;;;;;5054427;28;20052;-66
2022/09/20 05:01:19;;;;;;;1.90;1.02;;;11.20;99.90;;;;;;5055232;28;20048;-66
2022/09/20 05:04:30;;;;;;;6.47;1.35;;;11.20;99.90;;;;;;5055599;28;20045;-66
2022/09/20 05:07:26;;;;;;;5.13;1.30;;;11.10;99.90;;;;;;5028378;28;20057;-66
2022/09/20 05:10:39;;;;;;;4.85;1.15;;;11.20;99.90;;;;;;5034403;28;20099;-66
2022/09/20 05:13:11;;;;;;;4.47;1.27;;;11.30;99.90;;;;;;5039940;28;20040;-66
2022/09/20 05:15:54;;;;;;;4.55;1.00;;;11.20;99.90;;;;;;5054152;28;20044;-66
2022/09/20 05:19:06;;;;;;;6.50;1.00;;;11.20;99.90;;;;;;5054277;28;20044;-66
2022/09/20 05:21:50;;;;;;;2.83;1.38;;;11.20;99.90;;;;;;5053909;28;20040;-66
2022/09/20 05:24:34;;;;;;;4.10;1.05;;;11.00;99.90;;;;;;5054061;28;20045;-66
2022/09/20 05:27:18;;;;;;;4.57;2.15;;;11.20;99.90;;;;;;5051360;28;20049;-66
2022/09/20 05:29:57;;;;;;;3.13;1.20;;;11.30;99.90;;;;;;5047623;28;20076;-66
2022/09/20 05:32:37;;;;;;;5.00;1.77;;;11.20;99.90;;;;;;5042410;28;20098;-66
2022/09/20 05:35:21;;;;;;;4.25;1.90;;;11.30;99.90;;;;;;5054984;28;20068;-66
2022/09/20 05:37:57;;;;;;;7.03;1.20;;;11.30;99.90;;;;;;5053719;28;20582;-66
2022/09/20 05:41:06;;;;;;;6.50;1.25;;;11.40;99.90;;;;;;5054995;28;20066;-66
2022/09/20 05:43:49;;;;;;;8.88;1.35;;;11.30;99.90;;;;;;5055006;28;20457;-66
2022/09/20 05:46:47;;;;;;;2.78;1.08;;;11.30;99.90;;;;;;5053781;28;20084;-66
2022/09/20 05:49:52;;;;;;;6.57;1.40;;;11.30;99.90;;;;;;5052899;28;20037;-66
2022/09/20 05:52:51;;;;;;;5.43;1.52;;;11.30;99.90;;;;;;5050234;28;20046;-66
2022/09/20 05:55:23;;;;;;;1.95;0.95;;;11.40;99.90;;;;;;5047461;28;20168;-66
2022/09/20 05:58:00;;;;;;;7.60;1.48;;;11.40;99.90;;;;;;5040175;28;20056;-66
2022/09/20 06:00:31;;;;;;;5.10;1.35;;;11.30;99.90;;;;;;5039263;28;20427;-66
2022/09/20 06:03:03;;;;;;;3.90;1.52;;;11.40;99.90;;;;;;5054632;28;20060;-66
2022/09/20 06:05:51;;;;;;;8.52;1.23;;;11.20;99.90;;;;;;5053208;28;20060;-66
2022/09/20 06:08:33;;;;;;;6.18;1.40;;;11.40;99.90;;;;;;5055391;28;20072;-66
2022/09/20 06:11:27;;;;;;;6.55;1.60;;;11.60;99.90;;;;;;5051533;28;20041;-66
2022/09/20 06:14:00;;;;;;;6.72;1.40;;;11.50;99.90;;;;;;5052472;28;20114;-66
2022/09/20 06:16:39;;;;;;;5.57;1.13;;;11.50;99.90;;;;;;5054177;28;20499;-66
2022/09/20 06:19:20;;;;;;;9.18;1.70;;;11.50;99.90;;;;;;5054264;28;20114;-66
2022/09/20 06:21:52;;;;;;;5.32;1.40;;;11.50;99.90;;;;;;5052692;28;20084;-66
2022/09/20 06:24:41;;;;;;;4.53;1.20;;;11.40;99.90;;;;;;5053981;28;20399;-66
2022/09/20 06:27:20;;;;;;;7.28;1.25;;;11.70;99.90;;;;;;5052964;28;20045;-66
2022/09/20 06:30:00;;;;;;;3.58;1.30;;;11.70;99.90;;;;;;5053683;28;20467;-66
2022/09/20 06:32:26;;;;;;;3.63;1.27;;;11.60;99.90;;;;;;5047258;28;20048;-66
2022/09/20 06:34:53;;;;;;;4.47;1.10;;;11.60;99.90;;;;;;5052467;28;20104;-66
2022/09/20 06:43:23;;;;;;;4.47;1.27;;;;;;;;;;5053515;28;20045;-68
2022/09/20 06:45:49;;;;;;;4.68;1.65;;;12.00;99.90;;;;;;5059828;28;20037;-68
2022/09/20 06:48:15;;;;;;;5.35;1.80;;;12.00;99.90;;;;;;5036959;28;20116;-67
2022/09/20 06:50:44;;;;;;;9.65;1.48;;;12.00;99.90;;;;;;5048836;28;20087;-65
2022/09/20 06:53:28;;;;;;;6.40;1.33;;;12.30;99.90;;;;;;5048638;28;20052;-64
2022/09/20 06:55:54;;;;;;;7.50;1.50;;;12.30;99.90;;;;;;5049467;28;20047;-65
2022/09/20 06:58:19;;;;;;;4.63;1.20;;;12.40;99.90;;;;;;5052131;28;20041;-65
2022/09/20 07:00:45;;;;;;;4.00;0.90;;;12.60;99.90;;;;;;5052730;28;20049;-65
2022/09/20 07:03:11;;;;;;;6.20;1.00;;;12.70;99.90;;;;;;5048824;28;20040;-64
2022/09/20 07:05:37;;;;;;;8.63;1.77;;;12.60;99.90;;;;;;5052950;28;20406;-65
2022/09/20 07:08:03;;;;;;;5.40;1.10;;;12.80;99.90;;;;;;5048314;28;20032;-65
2022/09/20 07:10:29;;;;;;;3.42;1.15;;;;;;;;;;5046400;28;20049;-65
2022/09/20 07:12:59;;;;;;;5.47;0.90;;;12.80;99.90;;;;;;5052939;28;20029;-64
2022/09/20 07:15:26;;;;;;;6.28;1.35;;;12.90;99.90;;;;;;5053191;28;20041;-64
2022/09/20 07:17:51;;;;;;;4.95;1.13;;;13.20;99.90;;;;;;5052849;28;20037;-65
2022/09/20 07:20:19;;;;;;;7.05;1.33;;;13.50;99.90;;;;;;5040094;28;20037;-64
2022/09/20 07:22:45;;;;;;;6.53;4.00;;;13.50;99.90;;;;;;5052639;28;20444;-65
2022/09/20 07:25:10;;;;;;;4.15;1.50;;;13.80;99.90;;;;;;5052198;28;20044;-64
2022/09/20 07:27:36;;;;;;;12.88;8.85;;;14.00;99.90;;;;;;5052449;28;20036;-64
2022/09/20 07:30:03;;;;;;;28.52;13.18;;;14.30;99.90;;;;;;5048943;28;20090;-65
2022/09/20 07:32:29;;;;;;;22.70;9.50;;;14.30;99.90;;;;;;5034566;28;20083;-65
2022/09/20 07:34:54;;;;;;;24.00;12.57;;;14.60;99.90;;;;;;5034110;28;20033;-64
2022/09/20 07:37:20;;;;;;;51.95;26.00;;;14.60;99.90;;;;;;5049101;28;20060;-65
2022/09/20 07:39:46;;;;;;;28.60;9.32;;;14.80;99.90;;;;;;5036373;28;20518;-64
2022/09/20 07:42:12;;;;;;;7.32;1.65;;;14.90;99.90;;;;;;5052618;28;20044;-65
2022/09/20 07:44:41;;;;;;;8.82;1.58;;;15.10;99.90;;;;;;5057529;28;20040;-65
2022/09/20 07:47:08;;;;;;;8.48;2.58;;;15.20;99.90;;;;;;5052432;28;20090;-65
2022/09/20 07:49:34;;;;;;;29.67;14.10;;;15.20;99.90;;;;;;5043655;28;20059;-65
2022/09/20 07:51:59;;;;;;;14.88;5.78;;;15.20;99.90;;;;;;5050394;28;20457;-65
2022/09/20 07:54:26;;;;;;;39.47;19.52;;;15.30;99.90;;;;;;5051585;28;20033;-65
2022/09/20 07:56:51;;;;;;;10.93;5.13;;;15.20;99.90;;;;;;5052399;28;20479;-63
2022/09/20 07:59:17;;;;;;;40.55;21.02;;;14.90;99.90;;;;;;5051375;28;20044;-62
2022/09/20 08:01:43;;;;;;;71.30;35.55;;;;;;;;;;5045555;28;20482;-65
2022/09/20 08:04:09;;;;;;;9.07;3.33;;;14.90;99.90;;;;;;5050808;28;20056;-65
2022/09/20 08:06:40;;;;;;;35.33;14.85;;;14.50;99.90;;;;;;5052236;28;20033;-64
2022/09/20 08:09:07;;;;;;;24.27;11.50;;;14.50;99.90;;;;;;5049935;28;20041;-65
2022/09/20 08:11:34;;;;;;;19.17;8.90;;;14.40;99.90;;;;;;5050516;28;20506;-64
2022/09/20 08:14:00;;;;;;;8.50;3.13;;;14.30;99.90;;;;;;5049249;28;20076;-64
2022/09/20 08:16:27;;;;;;;7.15;1.25;;;14.30;99.90;;;;;;5051981;28;20037;-64
2022/09/20 08:19:02;;;;;;;9.70;2.80;;;14.30;99.90;;;;;;5048851;28;20126;-64
2022/09/20 08:21:31;;;;;;;7.40;1.98;;;14.30;99.90;;;;;;5033793;28;20044;-64
2022/09/20 08:23:58;;;;;;;5.28;1.38;;;14.30;99.90;;;;;;5051968;28;20040;-65
2022/09/20 08:26:25;;;;;;;5.30;1.30;;;14.40;99.90;;;;;;5039384;28;20065;-65
2022/09/20 08:28:54;;;;;;;10.23;2.30;;;14.50;99.90;;;;;;5034166;28;20072;-65
2022/09/20 08:31:22;;;;;;;5.80;1.30;;;14.70;99.90;;;;;;5051480;28;20045;-65
2022/09/20 08:33:49;;;;;;;9.05;1.48;;;14.60;99.90;;;;;;5050942;28;20103;-64
2022/09/20 08:36:23;;;;;;;7.10;1.00;;;14.80;99.90;;;;;;5051516;28;20056;-64
2022/09/20 08:38:49;;;;;;;3.40;1.38;;;14.70;99.90;;;;;;5036418;28;20044;-64
2022/09/20 08:41:25;;;;;;;5.63;1.00;;;14.80;99.90;;;;;;5055005;28;20394;-64
2022/09/20 08:43:53;;;;;;;6.47;1.55;;;15.00;99.90;;;;;;5056424;28;20116;-63
2022/09/20 08:46:26;;;;;;;4.35;1.15;;;15.20;99.90;;;;;;5058950;28;20052;-64
2022/09/20 08:48:52;;;;;;;4.90;1.73;;;15.20;99.90;;;;;;5052582;28;20032;-64
2022/09/20 08:51:19;;;;;;;3.58;0.88;;;15.80;99.90;;;;;;5055221;28;20033;-64
2022/09/20 08:53:56;;;;;;;10.57;1.30;;;16.20;99.90;;;;;;5051857;28;20059;-63
2022/09/20 08:56:26;;;;;;;5.45;0.90;;;16.20;99.90;;;;;;5053632;28;20041;-64
2022/09/20 08:58:53;;;;;;;4.93;0.98;;;17.30;99.90;;;;;;5050417;28;20074;-63
2022/09/20 09:01:23;;;;;;;8.45;1.02;;;19.00;99.90;;;;;;5054318;28;20515;-64
2022/09/20 09:04:00;;;;;;;3.55;1.15;;;19.40;99.90;;;;;;5054708;28;20040;-66
2022/09/20 09:06:26;;;;;;;6.10;0.98;;;18.90;99.90;;;;;;5053210;28;20044;-65
2022/09/20 09:08:56;;;;;;;8.52;0.82;;;18.60;99.90;;;;;;5051455;28;20033;-65
2022/09/20 09:11:22;;;;;;;9.20;0.82;;;18.00;99.90;;;;;;5054371;28;20474;-64
2022/09/20 09:16:59;;;;;;;5.20;0.80;;;16.70;99.90;;;;;;5067965;28;20044;-64
2022/09/20 09:19:31;;;;;;;7.53;1.00;;;16.60;99.90;;;;;;5051645;28;20511;-64
2022/09/20 09:22:02;;;;;;;5.53;1.10;;;16.50;99.90;;;;;;5049932;28;20510;-64
2022/09/20 09:24:29;;;;;;;6.20;1.38;;;18.50;99.90;;;;;;5045526;28;20077;-64
2022/09/20 09:27:15;;;;;;;16.60;3.40;;;19.10;99.90;;;;;;5047603;28;20041;-64
2022/09/20 09:29:52;;;;;;;4.72;1.10;;;17.90;99.90;;;;;;5050114;28;20049;-64
2022/09/20 09:32:19;;;;;;;6.50;1.20;;;17.70;99.90;;;;;;5065413;28;20073;-64
2022/09/20 09:34:45;;;;;;;6.85;1.10;;;17.50;99.90;;;;;;5042436;28;20038;-64
2022/09/20 09:37:29;;;;;;;3.85;0.90;;;17.20;99.90;;;;;;5046602;28;20033;-64
2022/09/20 09:40:25;;;;;;;5.25;1.20;;;16.60;99.90;;;;;;5048738;28;20083;-64
2022/09/20 09:42:56;;;;;;;6.90;1.15;;;16.40;99.90;;;;;;5045102;28;20055;-65
2022/09/20 09:45:39;;;;;;;4.85;0.68;;;16.20;99.90;;;;;;5053098;28;20488;-64
2022/09/20 09:48:29;;;;;;;5.50;0.90;;;16.10;99.90;;;;;;5043278;28;20069;-64
2022/09/20 09:51:14;;;;;;;4.78;1.33;;;15.90;99.90;;;;;;5053681;28;20041;-65
2022/09/20 09:53:41;;;;;;;5.90;2.63;;;15.80;99.90;;;;;;5052613;28;20041;-66
2022/09/20 09:56:25;;;;;;;5.10;0.82;;;16.00;99.90;;;;;;5046593;28;20033;-67
2022/09/20 09:58:56;;;;;;;6.17;1.07;;;15.80;99.90;;;;;;5043698;28;20052;-65
2022/09/20 10:01:49;;;;;;;5.68;1.10;;;15.80;99.90;;;;;;5052241;28;20283;-65
2022/09/20 10:04:22;;;;;;;5.82;0.80;;;15.80;99.90;;;;;;5052222;28;20056;-65
2022/09/20 10:07:11;;;;;;;5.85;0.85;;;15.80;99.90;;;;;;5052288;28;20479;-64
2022/09/20 10:09:48;;;;;;;4.57;0.80;;;15.80;99.90;;;;;;5051655;28;20051;-66
2022/09/20 10:12:45;;;;;;;4.30;0.93;;;15.80;99.90;;;;;;5052155;28;20037;-65
2022/09/20 10:15:26;;;;;;;9.38;1.00;;;15.80;99.90;;;;;;5051131;28;20045;-64
2022/09/20 10:18:16;;;;;;;8.05;1.02;;;15.90;99.90;;;;;;5051370;28;20049;-65
2022/09/20 10:21:06;;;;;;;5.18;0.90;;;15.90;99.90;;;;;;5041727;28;20120;-65
2022/09/20 10:23:55;;;;;;;3.58;1.08;;;15.90;99.90;;;;;;5052335;28;20076;-65
2022/09/20 10:26:51;;;;;;;3.20;0.60;;;15.80;99.90;;;;;;5052479;28;20052;-65
2022/09/20 10:29:57;;;;;;;4.13;1.23;;;15.70;99.90;;;;;;5051511;28;20084;-65
2022/09/20 10:32:48;;;;;;;2.50;0.87;;;15.80;99.90;;;;;;5051901;28;20051;-65
2022/09/20 10:35:56;;;;;;;4.38;1.17;;;16.00;99.90;;;;;;5051112;28;20041;-66
2022/09/20 10:38:55;;;;;;;4.13;0.88;;;16.30;99.90;;;;;;5052493;28;20055;-65
2022/09/20 10:44:17;;;;;;;6.95;1.13;;;16.50;99.90;;;;;;5052463;28;20496;-65
2022/09/20 10:47:06;;;;;;;4.30;1.15;;;16.50;99.90;;;;;;5051120;28;20049;-65
2022/09/20 10:49:34;;;;;;;3.10;0.63;;;16.60;99.90;;;;;;5050826;28;20041;-66
2022/09/20 10:52:23;;;;;;;5.20;1.02;;;16.60;99.90;;;;;;5050500;28;20501;-65
2022/09/20 10:55:19;;;;;;;7.05;0.90;;;16.70;99.90;;;;;;5047649;28;20133;-65
2022/09/20 10:57:54;;;;;;;6.00;0.80;;;16.80;99.90;;;;;;5050187;28;20498;-66
2022/09/20 11:01:12;;;;;;;5.07;1.00;;;16.80;99.90;;;;;;5050078;28;20048;-65
2022/09/20 11:03:37;;;;;;;6.03;1.17;;;16.70;99.90;;;;;;5016296;28;20052;-65
2022/09/20 11:06:14;;;;;;;6.40;0.95;;;16.70;99.90;;;;;;5050574;28;20128;-66
2022/09/20 11:08:41;;;;;;;5.03;0.90;;;16.60;99.90;;;;;;5052322;28;20049;-65
2022/09/20 11:11:33;;;;;;;7.05;0.90;;;16.50;99.90;;;;;;5051869;28;20048;-65
2022/09/20 11:14:04;;;;;;;3.10;0.60;;;16.30;99.90;;;;;;5050651;28;20499;-65
2022/09/20 11:16:43;;;;;;;5.85;0.80;;;16.10;99.90;;;;;;5050618;28;20091;-65
2022/09/20 11:19:27;;;;;;;7.78;1.05;;;16.00;99.90;;;;;;5050533;28;20124;-65
2022/09/20 11:22:04;;;;;;;5.60;0.65;;;15.90;99.90;;;;;;5051927;28;20399;-66
2022/09/20 11:24:51;;;;;;;3.90;0.77;;;15.80;99.90;;;;;;5051976;28;20114;-66
2022/09/20 11:27:51;;;;;;;4.32;0.85;;;15.70;99.90;;;;;;5040929;28;20041;-65
2022/09/20 11:30:19;;;;;;;4.60;1.10;;;15.80;99.90;;;;;;5041953;28;20059;-64
2022/09/20 11:32:52;;;;;;;4.28;0.80;;;15.60;99.90;;;;;;5051014;28;20047;-65
2022/09/20 11:35:26;;;;;;;4.75;0.93;;;15.80;99.90;;;;;;5050680;28;20037;-65
2022/09/20 11:38:08;;;;;;;4.55;1.02;;;15.60;99.90;;;;;;5048292;28;20044;-66
2022/09/20 11:40:39;;;;;;;2.55;0.93;;;15.60;99.90;;;;;;5051839;28;20041;-66
2022/09/20 11:43:07;;;;;;;6.32;1.15;;;15.70;99.90;;;;;;5051446;28;20108;-66
2022/09/20 11:45:34;;;;;;;7.07;1.08;;;15.80;99.90;;;;;;5050969;28;20069;-66
2022/09/20 11:48:22;;;;;;;2.65;0.63;;;15.80;99.90;;;;;;5044545;28;20037;-66
2022/09/20 11:51:19;;;;;;;4.15;0.85;;;15.80;99.90;;;;;;5050922;28;20037;-66
2022/09/20 11:54:19;;;;;;;3.88;1.05;;;16.00;99.90;;;;;;5051316;28;20048;-66
2022/09/20 11:56:56;;;;;;;5.97;0.90;;;15.90;99.90;;;;;;5051307;28;20159;-66
2022/09/20 11:59:33;;;;;;;7.80;1.00;;;16.00;99.90;;;;;;5051100;28;20505;-66
2022/09/20 12:02:00;;;;;;;4.65;0.73;;;16.10;99.90;;;;;;5049852;28;20045;-66
2022/09/20 12:04:30;;;;;;;3.45;0.88;;;16.10;99.90;;;;;;5050786;28;20044;-67
2022/09/20 12:07:16;;;;;;;4.78;1.15;;;16.30;99.90;;;;;;5051223;28;20495;-66
2022/09/20 12:09:45;;;;;;;3.90;0.80;;;16.00;99.90;;;;;;5051163;28;20133;-65
2022/09/20 12:12:23;;;;;;;6.03;1.55;;;16.10;99.90;;;;;;5053125;28;20029;-67
2022/09/20 12:14:54;;;;;;;5.10;0.98;;;16.00;99.90;;;;;;5067535;28;20278;-66
2022/09/20 12:17:45;;;;;;;4.05;0.90;;;16.10;99.90;;;;;;5053560;28;20044;-66
2022/09/20 12:20:37;;;;;;;4.78;0.85;;;16.00;99.90;;;;;;5054236;28;20037;-66
2022/09/20 12:23:37;;;;;;;5.20;0.70;;;16.00;99.90;;;;;;5053364;28;20052;-66
2022/09/20 12:26:30;;;;;;;7.38;0.93;;;16.00;99.90;;;;;;5054167;28;20037;-66
2022/09/20 12:28:59;;;;;;;4.45;1.25;;;16.00;99.90;;;;;;5052298;28;20522;-66
2022/09/20 12:31:25;;;;;;;4.55;0.77;;;16.10;99.90;;;;;;5053753;28;20052;-67
2022/09/20 12:33:53;;;;;;;8.00;0.90;;;16.40;99.90;;;;;;5053537;28;20391;-67
2022/09/20 12:36:19;;;;;;;5.82;1.08;;;16.30;99.90;;;;;;5035150;28;20040;-66
2022/09/20 12:38:47;;;;;;;3.35;0.70;;;16.40;99.90;;;;;;5054514;28;20413;-67
2022/09/20 12:41:18;;;;;;;9.75;1.60;;;16.30;99.90;;;;;;5051311;28;20045;-66
2022/09/20 12:44:20;;;;;;;3.15;0.63;;;16.30;99.90;;;;;;5054989;28;20049;-66
2022/09/20 12:46:59;;;;;;;6.70;0.77;;;16.30;99.90;;;;;;5053072;28;20531;-67
2022/09/20 12:55:55;;;;;;;2.88;0.82;;;16.40;99.90;;;;;;5047406;28;20045;-65
2022/09/20 12:58:23;;;;;;;;;;;16.40;99.90;;;;;;5043143;28;20064;-64
2022/09/20 13:00:54;;;;;;;10.85;0.90;;;16.40;99.90;;;;;;5053947;28;19928;-65
2022/09/20 13:03:30;;;;;;;4.70;0.90;;;16.30;99.90;;;;;;5053312;28;20052;-65
2022/09/20 13:06:05;;;;;;;4.53;0.63;;;16.40;99.90;;;;;;5053022;28;20091;-65
2022/09/20 13:09:03;;;;;;;4.10;0.60;;;16.40;99.90;;;;;;5054662;28;20116;-65
2022/09/20 13:11:42;;;;;;;5.72;0.60;;;16.40;99.90;;;;;;5050261;28;20049;-66
2022/09/20 13:14:21;;;;;;;6.05;0.63;;;16.60;99.90;;;;;;5054467;28;20075;-65
2022/09/20 13:16:54;;;;;;;6.00;1.40;;;16.60;99.90;;;;;;5053392;28;20079;-65
2022/09/20 13:19:37;;;;;;;5.85;0.75;;;16.60;99.90;;;;;;5052378;28;20051;-65
2022/09/20 13:22:12;;;;;;;6.65;0.85;;;16.50;99.90;;;;;;5041894;28;20421;-65
2022/09/20 13:24:41;;;;;;;6.53;1.00;;;16.40;99.90;;;;;;5051660;28;20524;-65
2022/09/20 13:27:23;;;;;;;3.33;0.55;;;16.60;99.90;;;;;;5049816;28;20052;-65
2022/09/20 13:29:49;;;;;;;2.40;0.55;;;16.40;99.90;;;;;;5054743;28;20036;-65
2022/09/20 13:32:25;;;;;;;4.18;0.73;;;16.40;99.90;;;;;;5053942;28;20064;-65
2022/09/20 13:35:09;;;;;;;4.60;0.60;;;16.10;99.90;;;;;;5043901;28;20384;-64
2022/09/20 13:37:45;;;;;;;6.93;0.68;;;16.20;99.90;;;;;;5053485;28;20079;-65
2022/09/20 13:40:20;;;;;;;5.40;0.52;;;16.00;99.90;;;;;;5054792;28;20098;-65
2022/09/20 13:42:48;;;;;;;3.78;0.60;;;15.90;99.90;;;;;;5053723;28;20049;-65
2022/09/20 13:45:15;;;;;;;1.48;0.50;;;16.10;99.90;;;;;;5062011;28;20047;-65
2022/09/20 13:47:42;;;;;;;6.38;0.60;;;16.10;99.90;;;;;;5052176;28;20060;-66
2022/09/20 13:50:20;;;;;;;4.20;1.20;;;16.30;99.90;;;;;;5053595;28;20052;-66
2022/09/20 13:52:58;;;;;;;5.63;0.80;;;16.30;99.90;;;;;;5053775;28;20414;-66
2022/09/20 13:55:27;;;;;;;6.38;0.77;;;16.10;99.90;;;;;;5049671;28;20545;-66
2022/09/20 13:57:55;;;;;;;5.25;1.00;;;16.20;99.90;;;;;;5052913;28;20052;-66
2022/09/20 14:00:21;;;;;;;3.55;0.65;;;16.30;99.90;;;;;;5035765;28;20037;-66
2022/09/20 14:02:48;;;;;;;7.85;1.38;;;16.20;99.90;;;;;;5052830;28;20068;-66
2022/09/20 14:05:18;;;;;;;3.20;0.68;;;16.20;99.90;;;;;;5054485;28;20039;-66